Terminal Aerodrome Forecast
Issued by NWS Mt. Holly, NJ

Home | Current Version | Previous Version | Text Only | Print | Product List | Glossary On
Versions: 1 2 3 4 5 6 7 8 9 10 11 12 13 14 15 16 17 18 19 20 21 22 23 24 25 26 27 28 29
000
FTUS41 KPHI 231700
TAFTTN
TAF
KTTN 231734Z 2318/2418 10007KT P6SM -SHRA SCT025 BKN050
     FM232200 10004KT P6SM BKN050 BKN120
     FM240500 VRB02KT P6SM SCT050 SCT120
     FM241200 05005KT P6SM SCT035=

USA.gov is the U.S. government's official web portal to all federal, state and local government web resources and services.